HESG 230700Z 12004KT CAVOK 31/10 Q1009 NOSIG
From batch tds/metars/production/2022/9/23/h07_m55_metars.cache.csv.gz
Observed at (13 days ago)
Identifier HESG
talk